This demonstration page uses our WeatherBlox Daily Observations layout. Learn more.

41.55636, -103.73856

Hourly Observations for March 5, 2019

Temp ( °F °C ) Dew Point ( °F °C ) Humidity (%) Winds ( mph kmh ) Pressure ( in mb ) Visibility ( mi km ) Precip ( " mm )
12:58 am 00:58 Clear 6 -14.5 -2 -18.8 70 70 W 7 11 30.45 1031 10 16.0934 N/A
1:58 am 01:58 Clear 2 -16.9 -4 -19.9 78 78 WNW 7 11 30.52 1033 10 16.0934 N/A
2:58 am 02:58 Clear 2 -16.5 -5 -20.4 72 72 WNW 9 15 30.5 1033 10 16.0934 N/A
3:58 am 03:58 Clear 0 -17.9 -5 -20.3 82 82 WNW 7 11 30.5 1033 10 16.0934 N/A
4:58 am 04:58 Clear -2 -18.8 -7 -21.8 77 77 WNW 3 6 30.5 1033 10 16.0934 N/A
5:58 am 05:58 Clear 5 -14.9 -3 -19.7 67 67 WNW 6 9 30.49 1033 10 16.0934 N/A
6:58 am 06:58 Clear 2 -16.8 -7 -21.6 67 67 WNW 5 7 30.49 1033 10 16.0934 N/A
7:58 am 07:58 Clear -2 -18.7 -11 -24 63 63 WNW 8 13 30.52 1033 10 16.0934 N/A
8:58 am 08:58 Clear 0 -17.9 -9 -22.9 65 65 WNW 6 9 30.53 1034 10 16.0934 N/A
9:58 am 09:58 Clear 1 -17.5 -9 -22.9 63 63 NNW 8 13 30.51 1033 10 16.0934 N/A
10:58 am 10:58 Clear 3 -16.2 -8 -22 61 61 NNW 13 20 30.5 1033 10 16.0934 N/A
11:58 am 11:58 Clear -2 -18.9 -10 -23.2 69 69 WNW 12 19 30.55 1035 10 16.0934 N/A
12:58 pm 12:58 Clear 2 -16.8 -9 -22.5 62 62 NW 6 9 30.57 1035 10 16.0934 N/A
1:58 pm 13:58 Sunny 1 -17 -9 -22.8 61 61 WNW 5 7 30.6 1036 10 16.0934 N/A
2:58 pm 14:58 Sunny 9 -12.7 -2 -19.1 59 59 NW 14 22 30.59 1036 10 16.0934 N/A
3:58 pm 15:58 Sunny 12 -11 -1 -18.4 55 55 NW 9 15 30.6 1036 10 16.0934 N/A
4:58 pm 16:58 Sunny 16 -9 -1 -18.1 48 48 NW 14 22 30.59 1036 10 16.0934 N/A
6:58 pm 18:58 Sunny 19 -7.5 1 -17.5 45 45 Calm 30.55 1035 10 16.0934 0.02 0.508
7:58 pm 19:58 Sunny 23 -4.9 13 -10.8 64 64 SSW 8 13 30.51 1033 10 16.0934 0 0
8:58 pm 20:58 Sunny 26 -3.6 14 -9.8 63 63 SW 10 17 30.48 1032 10 16.0934 0 0
9:58 pm 21:58 Sunny 26 -3.1 12 -11.2 54 54 SW 10 17 30.45 1031 10 16.0934 0 0
10:58 pm 22:58 Sunny 25 -4 12 -11 59 59 SSW 17 28 30.42 1030 10 16.0934 0 0
11:58 pm 23:58 Sunny 22 -5.8 13 -10.8 68 68 SSW 16 26 30.43 1030 10 16.0934 0 0

Powered by AerisWeather